createdAt,value
2018-01-21T00:00:35.762Z,10.98
2018-01-21T00:03:03.256Z,12.95
2018-01-21T00:05:30.735Z,12.23
2018-01-21T00:07:58.199Z,12.10
2018-01-21T00:10:25.680Z,14.18
2018-01-21T00:12:53.128Z,12.77
2018-01-21T00:15:20.607Z,14.98
2018-01-21T00:17:48.095Z,16.30
2018-01-21T00:20:15.556Z,13.55
2018-01-21T00:22:43.013Z,14.98
2018-01-21T00:25:10.503Z,12.40
2018-01-21T00:27:37.951Z,14.82
2018-01-21T00:30:05.429Z,14.63
2018-01-21T00:32:32.912Z,13.25
2018-01-21T00:35:00.364Z,14.73
2018-01-21T00:37:27.816Z,15.40
2018-01-21T00:39:55.288Z,14.23
2018-01-21T00:42:22.847Z,14.07
2018-01-21T00:44:50.322Z,14.75
2018-01-21T00:47:17.927Z,15.18
2018-01-21T00:49:45.399Z,13.68
2018-01-21T00:52:12.877Z,16.00
2018-01-21T00:54:40.336Z,13.05
2018-01-21T00:57:14.942Z,13.02
2018-01-21T00:59:42.448Z,12.32
2018-01-21T01:02:09.935Z,14.93
2018-01-21T01:04:37.393Z,14.20
2018-01-21T01:07:05.494Z,15.95
2018-01-21T01:09:33.087Z,16.85
2018-01-21T01:12:00.540Z,15.95
2018-01-21T01:14:28.034Z,19.27
2018-01-21T01:16:55.502Z,18.65
2018-01-21T01:19:22.971Z,17.77
2018-01-21T01:21:50.436Z,16.77
2018-01-21T01:24:17.898Z,16.10
2018-01-21T01:26:45.346Z,17.25
2018-01-21T01:29:12.828Z,18.83
2018-01-21T01:31:40.281Z,17.98
2018-01-21T01:34:07.771Z,13.60
2018-01-21T01:36:35.228Z,16.50
2018-01-21T01:39:03.327Z,17.12
2018-01-21T01:41:30.781Z,15.55
2018-01-21T01:43:58.244Z,12.30
2018-01-21T01:46:25.692Z,15.38
2018-01-21T01:48:55.943Z,14.75
2018-01-21T01:51:23.403Z,14.80
2018-01-21T01:53:50.858Z,15.82
2018-01-21T01:56:18.327Z,13.68
2018-01-21T01:58:45.811Z,15.00
2018-01-21T02:01:13.273Z,13.85
2018-01-21T02:03:40.720Z,18.48
2018-01-21T02:06:08.213Z,12.15
2018-01-21T02:08:35.662Z,14.07
2018-01-21T02:11:03.123Z,14.65
2018-01-21T02:13:30.634Z,12.82
2018-01-21T02:15:58.088Z,11.88
2018-01-21T02:18:25.596Z,13.50
2018-01-21T02:20:53.065Z,13.70
2018-01-21T02:23:20.531Z,10.60
2018-01-21T02:25:48.010Z,8.15
2018-01-21T02:28:15.455Z,9.18
2018-01-21T02:30:42.897Z,8.23
2018-01-21T02:33:10.351Z,8.60
2018-01-21T02:35:37.871Z,7.43
2018-01-21T02:38:05.395Z,7.62
2018-01-21T02:40:32.871Z,8.30
2018-01-21T02:43:00.327Z,8.38
2018-01-21T02:45:27.791Z,9.68
2018-01-21T02:47:55.267Z,8.45
2018-01-21T02:50:22.712Z,7.55
2018-01-21T02:52:50.164Z,9.05
2018-01-21T02:55:17.641Z,8.30
2018-01-21T02:57:45.095Z,7.90
2018-01-21T03:00:12.544Z,9.32
2018-01-21T03:02:39.996Z,7.85
2018-01-21T03:05:07.444Z,10.35
2018-01-21T03:07:34.906Z,10.45
2018-01-21T03:10:02.380Z,7.78
2018-01-21T03:12:29.821Z,8.75
2018-01-21T03:14:57.270Z,7.97
2018-01-21T03:17:24.720Z,7.87
2018-01-21T03:19:52.166Z,9.00
2018-01-21T03:22:19.630Z,8.88
2018-01-21T03:24:47.085Z,8.85
2018-01-21T03:27:14.548Z,8.65
2018-01-21T03:29:42.048Z,8.15
2018-01-21T03:32:09.508Z,10.38
2018-01-21T03:34:36.975Z,10.40
2018-01-21T03:37:05.223Z,9.30
2018-01-21T03:39:32.676Z,10.82
2018-01-21T03:42:00.130Z,11.80
2018-01-21T03:44:27.602Z,10.77
2018-01-21T03:46:55.060Z,11.50
2018-01-21T03:49:22.499Z,10.00
2018-01-21T03:51:49.939Z,10.70
2018-01-21T03:54:17.411Z,9.82
2018-01-21T03:56:44.875Z,8.80
2018-01-21T03:59:12.315Z,9.48
2018-01-21T04:01:39.777Z,11.55
2018-01-21T04:04:07.245Z,11.10
2018-01-21T04:06:34.893Z,13.32
2018-01-21T04:09:02.362Z,10.30
2018-01-21T04:11:29.826Z,10.77
2018-01-21T04:13:57.302Z,12.23
2018-01-21T04:16:24.791Z,12.40
2018-01-21T04:18:52.262Z,12.85
2018-01-21T04:21:19.730Z,11.68
2018-01-21T04:23:47.212Z,11.65
2018-01-21T04:26:14.678Z,9.90
2018-01-21T04:28:42.120Z,11.02
2018-01-21T04:31:09.575Z,10.90
2018-01-21T04:33:37.015Z,13.10
2018-01-21T04:36:04.455Z,8.75
2018-01-21T04:38:31.950Z,8.60
2018-01-21T04:40:59.412Z,8.57
2018-01-21T04:43:26.860Z,10.10
2018-01-21T04:45:54.319Z,12.37
2018-01-21T04:48:21.770Z,8.32
2018-01-21T04:50:49.220Z,7.78
2018-01-21T04:53:16.675Z,7.40
2018-01-21T04:55:44.116Z,7.68
2018-01-21T04:58:11.586Z,8.40
2018-01-21T05:00:39.058Z,8.85
2018-01-21T05:03:06.500Z,8.85
2018-01-21T05:05:34.017Z,8.82
2018-01-21T05:08:01.475Z,8.90
2018-01-21T05:10:28.949Z,10.38
2018-01-21T05:12:56.415Z,10.27
2018-01-21T05:15:23.894Z,10.93
2018-01-21T05:17:51.335Z,13.62
2018-01-21T05:20:18.788Z,12.95
2018-01-21T05:22:46.266Z,10.65
2018-01-21T05:25:13.716Z,12.07
2018-01-21T05:27:41.195Z,10.60
2018-01-21T05:30:08.675Z,12.50
2018-01-21T05:32:36.115Z,10.45
2018-01-21T05:35:03.670Z,12.68
2018-01-21T05:37:31.136Z,12.20
2018-01-21T05:39:58.612Z,14.25
2018-01-21T05:42:26.056Z,12.15
2018-01-21T05:44:53.537Z,10.27
2018-01-21T05:47:20.999Z,10.05
2018-01-21T05:49:48.472Z,13.43
2018-01-21T05:52:15.951Z,10.15
2018-01-21T05:54:43.391Z,9.00
2018-01-21T05:57:10.848Z,9.95
2018-01-21T05:59:38.300Z,9.15
2018-01-21T06:02:05.747Z,9.60
2018-01-21T06:04:33.206Z,9.60
2018-01-21T06:07:00.670Z,9.75
2018-01-21T06:09:28.117Z,9.38
2018-01-21T06:11:55.562Z,9.30
2018-01-21T06:14:23.047Z,10.32
2018-01-21T06:16:50.500Z,13.60
2018-01-21T06:19:17.958Z,10.70
2018-01-21T06:21:45.438Z,13.43
2018-01-21T06:24:12.892Z,14.00
2018-01-21T06:26:40.370Z,9.93
2018-01-21T06:29:07.847Z,14.65
2018-01-21T06:31:35.308Z,12.18
2018-01-21T06:34:02.764Z,12.50
2018-01-21T06:36:30.208Z,11.85
2018-01-21T06:38:57.670Z,11.27
2018-01-21T06:41:25.115Z,9.85
2018-01-21T06:43:52.579Z,12.77
2018-01-21T06:46:20.032Z,15.95
2018-01-21T06:48:47.494Z,12.32
2018-01-21T06:51:14.955Z,14.93
2018-01-21T06:53:42.407Z,11.50
2018-01-21T06:56:09.890Z,14.38
2018-01-21T06:58:37.345Z,15.05
2018-01-21T07:01:04.865Z,11.48
2018-01-21T07:03:32.331Z,16.30
2018-01-21T07:05:59.797Z,14.32
2018-01-21T07:08:27.266Z,15.43
2018-01-21T07:10:54.755Z,15.90
2018-01-21T07:13:22.201Z,11.38
2018-01-21T07:15:49.652Z,13.20
2018-01-21T07:18:17.104Z,13.85
2018-01-21T07:20:44.600Z,12.55
2018-01-21T07:23:12.083Z,12.95
2018-01-21T07:25:39.547Z,15.45
2018-01-21T07:28:06.988Z,12.20
2018-01-21T07:30:34.461Z,16.42
2018-01-21T07:33:01.920Z,13.85
2018-01-21T07:35:29.372Z,18.55
2018-01-21T07:37:56.855Z,16.50
2018-01-21T07:40:24.321Z,18.12
2018-01-21T07:42:51.770Z,13.60
2018-01-21T07:45:19.246Z,19.33
2018-01-21T07:47:46.693Z,15.63
2018-01-21T07:50:14.149Z,16.15
2018-01-21T07:52:41.621Z,13.65
2018-01-21T07:55:09.079Z,15.30
2018-01-21T07:57:36.566Z,13.70
2018-01-21T08:00:04.052Z,15.00
2018-01-21T08:02:31.523Z,14.90
2018-01-21T08:04:58.986Z,16.05
2018-01-21T08:07:26.474Z,16.37
2018-01-21T08:09:53.959Z,14.85
2018-01-21T08:12:21.428Z,14.82
2018-01-21T08:14:48.931Z,14.87
2018-01-21T08:17:16.423Z,12.20
2018-01-21T08:19:43.867Z,16.92
2018-01-21T08:22:11.356Z,14.70
2018-01-21T08:24:38.823Z,14.80
2018-01-21T08:27:06.272Z,22.30
2018-01-21T08:29:33.742Z,15.27
2018-01-21T08:32:01.206Z,12.13
2018-01-21T08:34:34.402Z,10.90
2018-01-21T08:37:07.408Z,13.50
2018-01-21T08:39:40.842Z,11.40
2018-01-21T08:42:09.851Z,17.52
2018-01-21T08:44:37.307Z,12.10
2018-01-21T08:47:04.787Z,14.45
2018-01-21T08:49:32.247Z,12.13
2018-01-21T08:51:59.723Z,14.48
2018-01-21T08:54:27.180Z,11.27
2018-01-21T08:56:54.632Z,11.18
2018-01-21T08:59:22.104Z,12.50
2018-01-21T09:01:49.548Z,11.88
2018-01-21T09:04:16.992Z,28.85
2018-01-21T09:06:44.457Z,15.68
2018-01-21T09:09:11.921Z,13.95
2018-01-21T09:11:39.434Z,11.85
2018-01-21T09:14:06.896Z,15.32
2018-01-21T09:16:34.701Z,13.10
2018-01-21T09:19:02.518Z,16.05
2018-01-21T09:21:30.029Z,14.45
2018-01-21T09:23:57.511Z,19.30
2018-01-21T09:26:24.983Z,16.52
2018-01-21T09:28:52.492Z,13.88
2018-01-21T09:31:19.968Z,17.05
2018-01-21T09:33:47.432Z,16.05
2018-01-21T09:36:14.931Z,19.10
2018-01-21T09:38:42.383Z,19.85
2018-01-21T09:41:09.855Z,16.27
2018-01-21T09:43:37.329Z,18.25
2018-01-21T09:46:04.785Z,16.92
2018-01-21T09:48:32.260Z,18.00
2018-01-21T09:50:59.746Z,15.05
2018-01-21T09:53:27.259Z,19.10
2018-01-21T09:55:54.769Z,11.43
2018-01-21T09:58:22.258Z,15.25
2018-01-21T10:00:49.734Z,17.23
2018-01-21T10:03:17.215Z,15.75
2018-01-21T10:05:44.660Z,13.68
2018-01-21T10:08:12.286Z,18.20
2018-01-21T10:10:39.790Z,15.23
2018-01-21T10:13:07.240Z,15.98
2018-01-21T10:15:34.710Z,14.50
2018-01-21T10:18:02.219Z,22.35
2018-01-21T10:20:29.685Z,15.13
2018-01-21T10:22:57.152Z,18.73
2018-01-21T10:25:24.646Z,16.23
2018-01-21T10:27:52.190Z,11.77
2018-01-21T10:30:19.724Z,14.77
2018-01-21T10:32:47.188Z,15.27
2018-01-21T10:35:14.754Z,16.65
2018-01-21T10:37:42.240Z,19.33
2018-01-21T10:40:09.712Z,15.13
2018-01-21T10:42:37.204Z,12.30
2018-01-21T10:45:04.688Z,11.20
2018-01-21T10:47:32.184Z,15.43
2018-01-21T10:49:59.708Z,12.90
2018-01-21T10:52:27.187Z,14.32
2018-01-21T10:54:54.651Z,14.23
2018-01-21T10:57:22.113Z,13.07
2018-01-21T10:59:49.565Z,13.88
2018-01-21T11:02:17.028Z,15.45
2018-01-21T11:04:44.474Z,13.35
2018-01-21T11:07:11.916Z,16.40
2018-01-21T11:09:39.398Z,14.63
2018-01-21T11:12:06.863Z,15.00
2018-01-21T11:14:34.312Z,21.50
2018-01-21T11:17:01.795Z,11.32
2018-01-21T11:19:29.265Z,14.40
2018-01-21T11:21:56.711Z,10.80
2018-01-21T11:24:24.181Z,10.93
2018-01-21T11:26:51.648Z,12.20
2018-01-21T11:29:19.111Z,12.68
2018-01-21T11:31:46.581Z,11.68
2018-01-21T11:34:14.084Z,10.70
2018-01-21T11:36:41.528Z,10.23
2018-01-21T11:39:08.994Z,11.27
2018-01-21T11:41:36.444Z,10.13
2018-01-21T11:44:03.913Z,14.70
2018-01-21T11:46:31.380Z,11.38
2018-01-21T11:48:58.831Z,8.52
2018-01-21T11:51:26.302Z,8.95
2018-01-21T11:53:53.909Z,8.73
2018-01-21T11:56:21.370Z,8.10
2018-01-21T11:58:48.824Z,10.65
2018-01-21T12:01:16.295Z,13.65
2018-01-21T12:03:43.744Z,11.38
2018-01-21T12:06:11.217Z,12.55
2018-01-21T12:08:38.675Z,20.40
2018-01-21T12:11:06.138Z,12.00
2018-01-21T12:13:33.651Z,7.03
2018-01-21T12:16:01.088Z,11.70
2018-01-21T12:18:28.555Z,11.18
2018-01-21T12:20:56.030Z,8.95
2018-01-21T12:23:23.502Z,14.13
2018-01-21T12:25:50.944Z,13.00
2018-01-21T12:28:18.400Z,10.27
2018-01-21T12:30:45.867Z,9.43
2018-01-21T12:33:13.401Z,11.43
2018-01-21T12:35:40.878Z,11.88
2018-01-21T12:38:08.333Z,13.07
2018-01-21T12:40:35.784Z,7.62
2018-01-21T12:43:03.268Z,20.67
2018-01-21T12:45:30.712Z,12.27
2018-01-21T12:47:58.186Z,7.60
2018-01-21T12:50:25.642Z,6.60
2018-01-21T12:52:53.103Z,8.35
2018-01-21T12:55:20.574Z,6.55
2018-01-21T12:57:48.021Z,9.73
2018-01-21T13:00:15.463Z,6.70
2018-01-21T13:02:42.927Z,8.05
2018-01-21T13:05:10.399Z,7.43
2018-01-21T13:07:37.865Z,9.85
2018-01-21T13:10:05.346Z,7.28
2018-01-21T13:12:32.814Z,7.05
2018-01-21T13:15:00.270Z,9.95
2018-01-21T13:17:27.755Z,9.35
2018-01-21T13:19:55.223Z,8.23
2018-01-21T13:22:22.690Z,12.05
2018-01-21T13:24:50.167Z,7.22
2018-01-21T13:27:17.620Z,10.15
2018-01-21T13:29:45.091Z,9.90
2018-01-21T13:32:12.554Z,8.75
2018-01-21T13:34:40.012Z,11.23
2018-01-21T13:37:07.494Z,9.88
2018-01-21T13:39:34.976Z,12.40
2018-01-21T13:42:02.442Z,7.10
2018-01-21T13:44:29.915Z,8.93
2018-01-21T13:46:57.394Z,8.90
2018-01-21T13:49:24.821Z,8.30
2018-01-21T13:51:52.324Z,10.82
2018-01-21T13:54:19.804Z,8.65
2018-01-21T13:56:47.279Z,8.77
2018-01-21T13:59:14.762Z,7.00
2018-01-21T14:01:42.259Z,12.55
2018-01-21T14:04:09.737Z,9.07
2018-01-21T14:06:37.195Z,8.02
2018-01-21T14:09:04.690Z,11.50
2018-01-21T14:11:32.215Z,11.52
2018-01-21T14:13:59.659Z,11.43
2018-01-21T14:16:27.132Z,10.20
2018-01-21T14:18:54.627Z,9.85
2018-01-21T14:21:22.103Z,8.32
2018-01-21T14:23:49.560Z,7.55
2018-01-21T14:26:17.031Z,15.05
2018-01-21T14:28:44.523Z,8.63
2018-01-21T14:31:12.039Z,6.65
2018-01-21T14:33:39.493Z,6.25
2018-01-21T14:36:06.959Z,7.22
2018-01-21T14:38:34.423Z,12.50
2018-01-21T14:41:01.900Z,6.62
2018-01-21T14:43:29.374Z,8.60
2018-01-21T14:45:56.843Z,8.00
2018-01-21T14:48:24.316Z,6.37
2018-01-21T14:50:51.781Z,7.22
2018-01-21T14:53:19.224Z,9.40
2018-01-21T14:55:46.691Z,8.93
2018-01-21T14:58:14.156Z,9.63
2018-01-21T15:00:41.613Z,18.10
2018-01-21T15:03:09.064Z,23.08
2018-01-21T15:05:36.591Z,18.12
2018-01-21T15:08:04.013Z,8.13
2018-01-21T15:10:31.487Z,12.57
2018-01-21T15:12:58.948Z,8.88
2018-01-21T15:15:26.396Z,8.38
2018-01-21T15:17:53.858Z,8.90
2018-01-21T15:20:21.338Z,7.43
2018-01-21T15:22:48.899Z,6.62
2018-01-21T15:25:16.353Z,7.12
2018-01-21T15:27:43.834Z,13.23
2018-01-21T15:30:11.293Z,21.30
2018-01-21T15:32:38.735Z,12.90
2018-01-21T15:35:06.279Z,10.40
2018-01-21T15:37:33.724Z,9.07
2018-01-21T15:40:01.189Z,10.10
2018-01-21T15:42:28.656Z,7.50
2018-01-21T15:44:56.104Z,12.60
2018-01-21T15:47:23.583Z,15.80
2018-01-21T15:49:51.075Z,16.20
2018-01-21T15:52:18.524Z,11.07
2018-01-21T15:54:45.972Z,13.45
2018-01-21T15:57:13.441Z,14.80
2018-01-21T15:59:40.919Z,13.25
2018-01-21T16:02:08.403Z,13.93
2018-01-21T16:04:35.890Z,16.33
2018-01-21T16:07:03.348Z,13.40
2018-01-21T16:09:30.796Z,8.52
2018-01-21T16:11:58.261Z,11.27
2018-01-21T16:14:25.712Z,14.52
2018-01-21T16:16:53.160Z,9.82
2018-01-21T16:19:20.647Z,12.00
2018-01-21T16:21:48.089Z,8.95
2018-01-21T16:24:15.567Z,13.68
2018-01-21T16:26:43.032Z,13.38
2018-01-21T16:29:10.496Z,8.10
2018-01-21T16:31:37.959Z,7.65
2018-01-21T16:34:05.443Z,9.88
2018-01-21T16:36:32.884Z,10.15
2018-01-21T16:39:00.358Z,10.02
2018-01-21T16:41:27.843Z,18.05
2018-01-21T16:43:55.301Z,15.55
2018-01-21T16:46:22.750Z,8.77
2018-01-21T16:48:50.226Z,9.70
2018-01-21T16:51:17.675Z,12.82
2018-01-21T16:53:45.237Z,10.02
2018-01-21T16:56:12.704Z,16.67
2018-01-21T16:58:40.157Z,11.57
2018-01-21T17:01:07.631Z,16.33
2018-01-21T17:03:35.091Z,12.18
2018-01-21T17:06:02.562Z,11.10
2018-01-21T17:08:30.036Z,14.82
2018-01-21T17:10:57.525Z,10.05
2018-01-21T17:13:24.980Z,11.57
2018-01-21T17:15:52.424Z,14.00
2018-01-21T17:18:19.900Z,12.60
2018-01-21T17:20:47.367Z,12.00
2018-01-21T17:23:14.820Z,16.17
2018-01-21T17:25:42.311Z,9.15
2018-01-21T17:28:09.773Z,14.40
2018-01-21T17:30:37.247Z,15.23
2018-01-21T17:33:04.731Z,11.73
2018-01-21T17:35:32.214Z,14.02
2018-01-21T17:37:59.656Z,12.77
2018-01-21T17:40:27.143Z,13.23
2018-01-21T17:42:54.614Z,13.43
2018-01-21T17:45:22.077Z,11.73
2018-01-21T17:47:49.545Z,13.10
2018-01-21T17:50:17.039Z,18.90
2018-01-21T17:52:44.508Z,20.42
2018-01-21T17:55:12.005Z,24.85
2018-01-21T17:57:39.469Z,27.90
2018-01-21T18:00:06.942Z,36.53
2018-01-21T18:02:34.412Z,25.33
2018-01-21T18:05:01.884Z,21.00
2018-01-21T18:07:29.359Z,50.03
2018-01-21T18:09:56.863Z,29.20
2018-01-21T18:12:24.339Z,46.42
2018-01-21T18:14:52.040Z,36.70
2018-01-21T18:17:19.538Z,27.33
2018-01-21T18:19:47.027Z,24.92
2018-01-21T18:22:14.489Z,17.75
2018-01-21T18:24:41.956Z,32.55
2018-01-21T18:27:09.422Z,46.37
2018-01-21T18:29:36.943Z,104.78
2018-01-21T18:32:04.417Z,46.60
2018-01-21T18:34:31.899Z,22.42
2018-01-21T18:36:59.375Z,26.17
2018-01-21T18:39:26.872Z,32.03
2018-01-21T18:41:54.328Z,51.33
2018-01-21T18:44:21.792Z,45.47
2018-01-21T18:46:49.268Z,36.25
2018-01-21T18:49:16.788Z,25.62
2018-01-21T18:51:44.229Z,26.67
2018-01-21T18:54:11.709Z,28.58
2018-01-21T18:56:39.179Z,23.25
2018-01-21T18:59:06.653Z,20.92
2018-01-21T19:01:34.130Z,31.05
2018-01-21T19:04:01.584Z,37.58
2018-01-21T19:06:29.032Z,34.25
2018-01-21T19:08:56.505Z,24.37
2018-01-21T19:11:23.978Z,28.85
2018-01-21T19:13:51.432Z,17.02
2018-01-21T19:16:18.908Z,30.00
2018-01-21T19:18:47.219Z,22.25
2018-01-21T19:21:14.700Z,16.67
2018-01-21T19:23:42.244Z,18.42
2018-01-21T19:26:09.700Z,17.37
2018-01-21T19:28:37.171Z,11.68
2018-01-21T19:31:04.672Z,18.17
2018-01-21T19:33:32.146Z,20.77
2018-01-21T19:35:59.622Z,18.70
2018-01-21T19:38:28.919Z,16.30
2018-01-21T19:40:57.781Z,16.70
2018-01-21T19:56:52.985Z,23.87
2018-01-21T19:59:20.464Z,30.27
2018-01-21T20:01:47.938Z,31.12
2018-01-21T20:04:15.454Z,28.95
2018-01-21T20:06:42.893Z,33.55
2018-01-21T20:09:10.379Z,36.70
2018-01-21T20:11:38.001Z,43.45
2018-01-21T20:14:05.524Z,26.75
2018-01-21T20:16:33.011Z,20.92
2018-01-21T20:19:00.492Z,25.35
2018-01-21T20:21:27.970Z,36.53
2018-01-21T20:23:55.429Z,32.25
2018-01-21T20:26:22.923Z,43.53
2018-01-21T20:28:50.408Z,30.33
2018-01-21T20:31:17.879Z,31.02
2018-01-21T20:33:45.352Z,36.70
2018-01-21T20:36:12.844Z,28.42
2018-01-21T20:38:40.331Z,28.38
2018-01-21T20:41:07.804Z,28.80
2018-01-21T20:43:35.295Z,27.67
2018-01-21T20:46:02.775Z,37.13
2018-01-21T20:48:30.259Z,29.83
2018-01-21T21:04:21.264Z,33.38
2018-01-21T21:06:48.744Z,25.23
2018-01-21T21:09:16.211Z,31.25
2018-01-21T21:11:43.708Z,29.02
2018-01-21T21:14:11.183Z,32.35
2018-01-21T21:16:38.663Z,32.13
2018-01-21T21:19:06.133Z,33.85
2018-01-21T21:21:33.615Z,28.27
2018-01-21T21:24:01.080Z,31.12
2018-01-21T21:26:28.571Z,34.78
2018-01-21T21:28:56.030Z,33.45
2018-01-21T21:31:23.490Z,41.17
2018-01-21T21:33:50.964Z,26.90
2018-01-21T21:36:18.424Z,27.13
2018-01-21T21:38:45.891Z,35.45
2018-01-21T21:41:13.380Z,29.08
2018-01-21T21:43:40.860Z,33.67
2018-01-21T21:46:08.340Z,31.60
2018-01-21T21:48:35.808Z,37.10
2018-01-21T21:51:03.284Z,37.17
2018-01-21T21:53:30.775Z,31.83
2018-01-21T21:55:58.238Z,32.63
2018-01-21T21:58:25.715Z,42.08
2018-01-21T22:00:53.184Z,29.48
2018-01-21T22:03:20.659Z,35.75
2018-01-21T22:05:48.140Z,34.42
2018-01-21T22:08:15.608Z,45.03
2018-01-21T22:10:43.095Z,48.03
2018-01-21T22:13:10.571Z,45.90
2018-01-21T22:15:38.036Z,38.20
2018-01-21T22:18:05.501Z,35.05
2018-01-21T22:20:32.965Z,34.63
2018-01-21T22:23:00.463Z,34.45
2018-01-21T22:25:27.948Z,34.42
2018-01-21T22:27:55.408Z,35.42
2018-01-21T22:30:22.904Z,28.55
2018-01-21T22:32:50.356Z,34.45
2018-01-21T22:35:17.827Z,34.40
2018-01-21T22:37:45.301Z,33.92
2018-01-21T22:40:12.752Z,32.50
2018-01-21T22:42:40.239Z,34.03
2018-01-21T22:45:07.734Z,33.97
2018-01-21T22:47:35.223Z,31.17
2018-01-21T22:50:02.711Z,36.65
2018-01-21T22:52:30.207Z,34.08
2018-01-21T22:54:57.664Z,32.03
2018-01-21T22:57:25.149Z,22.33
2018-01-21T22:59:52.639Z,26.40
2018-01-21T23:02:20.121Z,57.53
2018-01-21T23:04:47.594Z,31.52
2018-01-21T23:07:15.092Z,36.10
2018-01-21T23:09:42.575Z,25.48
2018-01-21T23:12:10.034Z,26.05
2018-01-21T23:14:37.531Z,28.58
2018-01-21T23:17:05.011Z,31.85
2018-01-21T23:19:32.491Z,27.42
2018-01-21T23:21:59.980Z,29.02
2018-01-21T23:24:27.441Z,27.15
2018-01-21T23:26:54.907Z,29.40
2018-01-21T23:29:22.402Z,27.67
2018-01-21T23:31:49.861Z,25.77
2018-01-21T23:34:17.362Z,30.35
2018-01-21T23:36:44.824Z,24.30
2018-01-21T23:39:12.293Z,25.75
2018-01-21T23:41:39.753Z,25.65
2018-01-21T23:44:07.220Z,24.73
2018-01-21T23:46:34.694Z,26.48
2018-01-21T23:49:02.172Z,22.77
2018-01-21T23:51:29.664Z,20.65
2018-01-21T23:53:57.135Z,20.08
2018-01-21T23:56:24.615Z,25.15
2018-01-21T23:58:52.107Z,28.98
